Piera — 9HA3682 — position and weather

sailwx.info

Track history (hours):
 
Tides and Currents Weather Stations Pressure Air Temp Water Temp Dewpoint Dewpoint Depression Visibility Wind Speed Wind Dir Waves Ship Positions

Piera

Last reported at 2018-Apr-24 21:09 UTC. Time now 2018-May-21 19:00 UTC.
Position N 01°35' E 103°03'.
Warning: this ship's position is 26 days out of date.

Length 230 m; draft 7.3 m.

Type: Ship. MMSI: 229872000.

Date/timePositionNaut miles runAvg speedWind from/ knotsBaromVisibWave heightAir tempDewpointWater temp
2018-Apr-24 21:09N 01°35' E 103°03'212.4
2018-Apr-24 20:58N 01°33' E 103°05'612.7
2018-Apr-24 20:30N 01°29' E 103°09'713.1
2018-Apr-24 19:58N 01°24' E 103°14'613.2
2018-Apr-24 19:31N 01°20' E 103°18'714.0
2018-Apr-24 18:59N 01°15' E 103°24'713.9
2018-Apr-24 18:30N 01°13' E 103°30'713.1
2018-Apr-24 17:59N 01°12' E 103°37'613.0
2018-Apr-24 17:30N 01°09' E 103°42'612.3
2018-Apr-24 16:59N 01°11' E 103°49'612.1
2018-Apr-24 16:30N 01°13' E 103°54'611.0
2018-Apr-24 16:00N 01°15' E 103°59'510.0
2018-Apr-24 15:30N 01°16' E 104°04'2 3.4
2018-Apr-24 14:58N 01°18' E 104°04'0 0.2
2018-Apr-24 14:20N 01°18' E 104°04'0 0.0
2018-Apr-24 13:50N 01°18' E 104°04'0 0.0
2018-Apr-24 13:05N 01°18' E 104°04'0 0.0
2018-Apr-24 12:14N 01°18' E 104°04'0 0.0
2018-Apr-24 11:54N 01°18' E 104°04'0 0.0
2018-Apr-24 11:09N 01°18' E 104°04'0 0.0
2018-Apr-24 10:59N 01°18' E 104°04'0 0.0
2018-Apr-24 10:29N 01°18' E 104°04'0 0.0
2018-Apr-24 09:57N 01°18' E 104°04'0 0.0
2018-Apr-24 09:29N 01°18' E 104°04'0 0.2
2018-Apr-24 08:53N 01°18' E 104°04'0 0.1
2018-Apr-24 08:26N 01°18' E 104°04'0 0.0
2018-Apr-24 07:53N 01°18' E 104°04'0 0.0
2018-Apr-24 07:29N 01°18' E 104°04'0 0.1
2018-Apr-24 06:54N 01°18' E 104°04'0 0.0
2018-Apr-24 06:26N 01°18' E 104°04'0 0.0
2018-Apr-24 05:50N 01°18' E 104°04'0 0.0
2018-Apr-24 05:29N 01°18' E 104°04'0 0.0
2018-Apr-24 04:53N 01°18' E 104°04'0 0.0
2018-Apr-24 04:26N 01°18' E 104°04'0 0.0
2018-Apr-24 03:56N 01°18' E 104°04'0 0.1
2018-Apr-24 03:26N 01°18' E 104°04'0 0.0
2018-Apr-24 02:56N 01°18' E 104°04'0 0.0
2018-Apr-24 02:20N 01°18' E 104°04'0 0.0
2018-Apr-24 01:56N 01°18' E 104°04'0 0.0
2018-Apr-24 01:29N 01°18' E 104°04'0 0.0
2018-Apr-24 00:59N 01°18' E 104°04'0 0.0
2018-Apr-24 00:27N 01°18' E 104°04'0 0.0
2018-Apr-23 23:59N 01°18' E 104°04'0 0.0
2018-Apr-23 23:24N 01°18' E 104°04'0 0.0
2018-Apr-23 22:57N 01°18' E 104°04'0 0.2
2018-Apr-23 22:29N 01°18' E 104°04'1 2.2
2018-Apr-23 21:59N 01°17' E 104°05'2 4.2
2018-Apr-23 21:30N 01°18' E 104°07'2 4.1
2018-Apr-23 20:59N 01°17' E 104°09'3 6.3
2018-Apr-23 20:30N 01°17' E 104°12'3 5.9
2018-Apr-23 19:56N 01°18' E 104°15'2 4.7
2018-Apr-23 19:28N 01°18' E 104°17'2 4.5
2018-Apr-23 18:59N 01°19' E 104°20'2 5.0
2018-Apr-23 18:29N 01°20' E 104°22'2 3.6
2018-Apr-23 17:59N 01°21' E 104°23'3 6.7
2018-Apr-23 17:30N 01°24' E 104°25'6 9.6
2018-Apr-23 16:55N 01°27' E 104°30'4 9.5
2018-Apr-23 16:29N 01°30' E 104°32'7 9.2
2018-Apr-23 15:45N 01°36' E 104°36'2 9.2
2018-Apr-23 15:29N 01°38' E 104°37'  
2018-Apr-18 21:42N 21°28' E 118°39'512.8
2018-Apr-18 21:19N 21°31' E 118°42'1413.1
2018-Apr-18 20:17N 21°41' E 118°53'413.3
2018-Apr-18 20:00N 21°43' E 118°56'713.7
2018-Apr-18 19:30N 21°48' E 119°01'713.8
2018-Apr-18 19:01N 21°54' E 119°06'713.5
2018-Apr-18 18:30N 21°59' E 119°10'713.4
2018-Apr-18 18:00N 22°04' E 119°15'713.1
2018-Apr-18 17:30N 22°09' E 119°20'613.1
2018-Apr-18 17:01N 22°14' E 119°24'713.1
2018-Apr-18 16:30N 22°19' E 119°29'612.6
2018-Apr-18 16:00N 22°24' E 119°33'612.0
2018-Apr-18 15:30N 22°27' E 119°38'612.6
2018-Apr-18 15:01N 22°31' E 119°44'612.6
2018-Apr-18 14:31N 22°35' E 119°49'612.3
2018-Apr-18 14:00N 22°40' E 119°53'612.1
2018-Apr-18 13:30N 22°46' E 119°53'611.7
2018-Apr-18 13:01N 22°52' E 119°53'611.3
2018-Apr-18 12:30N 22°58' E 119°53'611.6
2018-Apr-18 11:59N 23°04' E 119°53'1111.9
2018-Apr-18 11:01N 23°15' E 119°53'011.2
2018-Apr-18 11:00N 23°16' E 119°53'612.3
2018-Apr-18 10:29N 23°22' E 119°52'612.9
2018-Apr-18 10:01N 23°28' E 119°52'713.2
2018-Apr-18 09:30N 23°35' E 119°53'713.7
2018-Apr-18 09:00N 23°42' E 119°54'713.8
2018-Apr-18 08:30N 23°48' E 119°54'  
Track history (hours):
 
Tides and Currents Weather Stations Pressure Air Temp Water Temp Dewpoint Dewpoint Depression Visibility Wind Speed Wind Dir Waves Ship Positions

Piera

Last reported at 2018-Apr-24 21:09 UTC. Time now 2018-May-21 19:00 UTC.
Position N 01°35' E 103°03'.
Warning: this ship's position is 26 days out of date.

Length 230 m; draft 7.3 m.

Type: Ship. MMSI: 229872000.

Date/timePositionNaut miles runAvg speedWind from/ knotsBaromVisibWave heightAir tempDewpointWater temp
2018-Apr-24 21:09N 01°35' E 103°03'212.4
2018-Apr-24 20:58N 01°33' E 103°05'612.7
2018-Apr-24 20:30N 01°29' E 103°09'713.1
2018-Apr-24 19:58N 01°24' E 103°14'613.2
2018-Apr-24 19:31N 01°20' E 103°18'714.0
2018-Apr-24 18:59N 01°15' E 103°24'713.9
2018-Apr-24 18:30N 01°13' E 103°30'713.1
2018-Apr-24 17:59N 01°12' E 103°37'613.0
2018-Apr-24 17:30N 01°09' E 103°42'612.3
2018-Apr-24 16:59N 01°11' E 103°49'612.1
2018-Apr-24 16:30N 01°13' E 103°54'611.0
2018-Apr-24 16:00N 01°15' E 103°59'510.0
2018-Apr-24 15:30N 01°16' E 104°04'2 3.4
2018-Apr-24 14:58N 01°18' E 104°04'0 0.2
2018-Apr-24 14:20N 01°18' E 104°04'0 0.0
2018-Apr-24 13:50N 01°18' E 104°04'0 0.0
2018-Apr-24 13:05N 01°18' E 104°04'0 0.0
2018-Apr-24 12:14N 01°18' E 104°04'0 0.0
2018-Apr-24 11:54N 01°18' E 104°04'0 0.0
2018-Apr-24 11:09N 01°18' E 104°04'0 0.0
2018-Apr-24 10:59N 01°18' E 104°04'0 0.0
2018-Apr-24 10:29N 01°18' E 104°04'0 0.0
2018-Apr-24 09:57N 01°18' E 104°04'0 0.0
2018-Apr-24 09:29N 01°18' E 104°04'0 0.2
2018-Apr-24 08:53N 01°18' E 104°04'0 0.1
2018-Apr-24 08:26N 01°18' E 104°04'0 0.0
2018-Apr-24 07:53N 01°18' E 104°04'0 0.0
2018-Apr-24 07:29N 01°18' E 104°04'0 0.1
2018-Apr-24 06:54N 01°18' E 104°04'0 0.0
2018-Apr-24 06:26N 01°18' E 104°04'0 0.0
2018-Apr-24 05:50N 01°18' E 104°04'0 0.0
2018-Apr-24 05:29N 01°18' E 104°04'0 0.0
2018-Apr-24 04:53N 01°18' E 104°04'0 0.0
2018-Apr-24 04:26N 01°18' E 104°04'0 0.0
2018-Apr-24 03:56N 01°18' E 104°04'0 0.1
2018-Apr-24 03:26N 01°18' E 104°04'0 0.0
2018-Apr-24 02:56N 01°18' E 104°04'0 0.0
2018-Apr-24 02:20N 01°18' E 104°04'0 0.0
2018-Apr-24 01:56N 01°18' E 104°04'0 0.0
2018-Apr-24 01:29N 01°18' E 104°04'0 0.0
2018-Apr-24 00:59N 01°18' E 104°04'0 0.0
2018-Apr-24 00:27N 01°18' E 104°04'0 0.0
2018-Apr-23 23:59N 01°18' E 104°04'0 0.0
2018-Apr-23 23:24N 01°18' E 104°04'0 0.0
2018-Apr-23 22:57N 01°18' E 104°04'0 0.2
2018-Apr-23 22:29N 01°18' E 104°04'1 2.2
2018-Apr-23 21:59N 01°17' E 104°05'2 4.2
2018-Apr-23 21:30N 01°18' E 104°07'2 4.1
2018-Apr-23 20:59N 01°17' E 104°09'3 6.3
2018-Apr-23 20:30N 01°17' E 104°12'3 5.9
2018-Apr-23 19:56N 01°18' E 104°15'2 4.7
2018-Apr-23 19:28N 01°18' E 104°17'2 4.5
2018-Apr-23 18:59N 01°19' E 104°20'2 5.0
2018-Apr-23 18:29N 01°20' E 104°22'2 3.6
2018-Apr-23 17:59N 01°21' E 104°23'3 6.7
2018-Apr-23 17:30N 01°24' E 104°25'6 9.6
2018-Apr-23 16:55N 01°27' E 104°30'4 9.5
2018-Apr-23 16:29N 01°30' E 104°32'7 9.2
2018-Apr-23 15:45N 01°36' E 104°36'2 9.2
2018-Apr-23 15:29N 01°38' E 104°37'  
2018-Apr-18 21:42N 21°28' E 118°39'512.8
2018-Apr-18 21:19N 21°31' E 118°42'1413.1
2018-Apr-18 20:17N 21°41' E 118°53'413.3
2018-Apr-18 20:00N 21°43' E 118°56'713.7
2018-Apr-18 19:30N 21°48' E 119°01'713.8
2018-Apr-18 19:01N 21°54' E 119°06'713.5
2018-Apr-18 18:30N 21°59' E 119°10'713.4
2018-Apr-18 18:00N 22°04' E 119°15'713.1
2018-Apr-18 17:30N 22°09' E 119°20'613.1
2018-Apr-18 17:01N 22°14' E 119°24'713.1
2018-Apr-18 16:30N 22°19' E 119°29'612.6
2018-Apr-18 16:00N 22°24' E 119°33'612.0
2018-Apr-18 15:30N 22°27' E 119°38'612.6
2018-Apr-18 15:01N 22°31' E 119°44'612.6
2018-Apr-18 14:31N 22°35' E 119°49'612.3
2018-Apr-18 14:00N 22°40' E 119°53'612.1
2018-Apr-18 13:30N 22°46' E 119°53'611.7
2018-Apr-18 13:01N 22°52' E 119°53'611.3
2018-Apr-18 12:30N 22°58' E 119°53'611.6
2018-Apr-18 11:59N 23°04' E 119°53'1111.9
2018-Apr-18 11:01N 23°15' E 119°53'011.2
2018-Apr-18 11:00N 23°16' E 119°53'612.3
2018-Apr-18 10:29N 23°22' E 119°52'612.9
2018-Apr-18 10:01N 23°28' E 119°52'713.2
2018-Apr-18 09:30N 23°35' E 119°53'713.7
2018-Apr-18 09:00N 23°42' E 119°54'713.8
2018-Apr-18 08:30N 23°48' E 119°54'  

Dump ship's entire track history